Current | Forecast
Updated: 6:30 AM EET on February 21, 2018
Observed at Mykolaiv, Ukraine
Temperature -6°C
Windchill -12°C
Humidity 86%
Dew Point -8°C
Wind ENE at 14 km/h
Pressure 1023 hPa (Steady)
Conditions Clear
Visibility -
UV N/A
Clouds
Yesterday's Maximum 4°C
Yesterday's Minimum -6°C approx.
Yesterday's Heating Degree Days 35 approx.
Sunrise6:47 AM EET
Sunset5:26 PM EET
Moon Rise9:35 AM EET
Moon Set11:29 PM EET
Moon PhaseMoon Phase
Waxing Crescent
Raw METARMETAR UKON 210430Z 06004MPS CAVOK M06/M08 Q1023 NOSIG


Monday
. High: 60° F.
Tuesday
. High: 66° F.
Wednesday
. High: 68° F.
Thursday
. High: 71° F.
Friday
. High: 66° F.
Saturday
. High: 60° F.
Sunday
. High: 64° F.
Monday
. High: 68° F.

Units: English | Metric

Find the Weather for any City, State or Zipcode, or Country:

U.S. State List | Severe Weather | Tropical Storms | Ski Conditions
United States | Canada | Central America | South America | Asia | Europe | Australia | Africa | Islands

Weather Underground

© Copyright 2018
The Weather Company, LLC